Beale Air Force Base Marysville US
ICAO: KBAB
IATA: BAB
Category: Large
Scheduled Services: No

Elevation: 113 ft
TransAlt. 18000 ft.

Airport Communications:
940TH COMD POST:25.602
NORCAL APP:125.4
ATIS:27.35
NORCAL DEP:125.4
GND:121.6
SUPERVISOR OF FLYING:138.5
PMSV METRO:23.98
WING COMD POST:32.1
PTD:140.875
TWR:119.4

KBAB Zoom In..

If you have problems with the map follow the link
https://www.worldairports.se/pages/airport.php?
ICAO=KBAB

Runways:

(A) RW 15 length 12000 ft width 300 ft
ILS 109.50 / hdg 145

(B) RW 33 length 12000 ft width 300 ft
ILS 109.50 / hdg 325

Location; KBAB
Day. 19 / Time. 13.13 Zulu
* Altimeter: 30.05
* Temperature: 03° c. 37.4°f.
* Wind from: 000° Speed 00 kn.
Dewpoint: -01° c.
Visibility: 10 Statute Miles.
Clouds: Overcast 1000 ft.

KBAB 191313Z AUTO 00000KT 10SM OVC010 03/M01 A3005 RMK AO2 CIG 009 RWY15 SLP179 $


Wind - Calm.

 
 
jpsmedia.com for Web Design worldairports.se 2018   terms of use